Date StartTime U_cm/s V_cm/s W_cm/s Ustd_cm/s Vstd_cm/s Wstd_cm/s Uvar_(cm/s)^2 Vvar_(cm/s)^2 Wvar_(cm/s)^2 KE_(m/s)^2 TurbulentKE_(m/s)^2 HorizWindSpeed_cm/s FrictionSpeec_cm/s DragCoef SpeedOfSound_m/s SonicTemperature_C Pressure_mb 
04/09/2015  06:01:00      -13.103      -37.490       -0.307        1.265        0.859        0.542        1.599        0.738        0.294        0.079        0.000       39.714        0.467        0.000      331.231       -0.889      864.960
04/09/2015  06:05:00      -33.414      -24.244       -0.473        6.619        4.278        1.438       43.812       18.301        2.068        0.088        0.003       41.283        2.984        0.005      331.196       -0.946      864.970
04/09/2015  06:07:00      -22.461       -1.386       10.772        5.643        4.122        4.928       31.842       16.990       24.282        0.035        0.004       22.504        3.105        0.019      331.446       -0.531      864.970
04/09/2015  06:08:00      -27.390      -20.873       10.476        3.744       12.994        2.046       14.021      168.835        4.186        0.074        0.009       34.436        3.261        0.009      331.295       -0.786      864.960
04/09/2015  06:09:00      -30.000      -30.000       11.000        0.000        0.000        0.000        0.000        0.000        0.000        0.096        0.000       42.426        0.000        0.000      331.300       -0.780      864.960
04/09/2015  06:12:00       -6.326      -11.521        0.053        3.334        1.959        1.125       11.118        3.839        1.265        0.009        0.001       13.143        0.723        0.003      331.296       -0.775      864.991
04/09/2015  06:13:00       -7.901      -15.496        0.754        4.142        3.228        1.489       17.159       10.419        2.218        0.017        0.001       17.394        1.149        0.004      331.234       -0.881      864.993
04/09/2015  06:14:00        0.285      -10.176       -0.306        1.500        2.593        1.695        2.251        6.724        2.873        0.006        0.001       10.180        0.872        0.007      331.217       -0.906      864.992
04/09/2015  06:15:00       -8.704       -8.036       -1.725        6.798        3.814        2.319       46.215       14.550        5.377        0.010        0.003       11.846        1.807        0.023      331.363       -0.671      864.994
04/09/2015  06:16:00      -18.310      -11.222        0.663        4.352        4.491        3.192       18.944       20.172       10.191        0.026        0.002       21.475        2.560        0.014      331.452       -0.523      865.001
04/09/2015  06:17:00      -12.196      -24.140       -0.647        5.708        6.838        1.735       32.578       46.760        3.009        0.041        0.004       27.045        2.178        0.006      331.364       -0.668      865.000
04/09/2015  06:18:00       -0.881      -32.866        1.990        4.405        3.434        2.499       19.400       11.789        6.243        0.056        0.002       32.878        1.350        0.002      331.286       -0.797      865.006
04/09/2015  06:19:00       10.743      -35.890        2.144        3.997        3.126        2.707       15.975        9.770        7.329        0.072        0.002       37.463        2.374        0.004      331.092       -1.117      865.011
04/09/2015  06:20:00       15.549      -56.830        3.641        4.233        5.540        2.880       17.918       30.692        8.295        0.177        0.003       58.919        2.644        0.002      331.496       -0.449      865.010
04/09/2015  06:21:00        2.653      -52.275        3.649        3.795        4.947        3.118       14.402       24.470        9.723        0.140        0.002       52.342        3.115        0.004      331.582       -0.310      865.008
04/09/2015  06:22:00       -5.346      -43.510       -0.286        8.733        7.037        3.178       76.274       49.518       10.097        0.103        0.007       43.838        1.907        0.002      331.482       -0.473      865.005
04/09/2015  06:23:00      -24.778      -38.251        2.026       12.135        7.740        2.933      147.252       59.912        8.602        0.115        0.011       45.575        1.303        0.001      331.333       -0.719      865.005
04/09/2015  06:24:00       33.952      -28.584        4.239        6.580        6.694        3.000       43.300       44.810        8.998        0.104        0.005       44.383        2.424        0.003      331.434       -0.552      865.006
04/09/2015  06:25:00       29.724      -28.949        3.287        8.333        6.386        4.785       69.431       40.776       22.894        0.093        0.007       41.492        4.180        0.010      331.379       -0.644      865.002
04/09/2015  06:26:00       30.530      -37.537        2.558        9.883        3.758        3.000       97.672       14.121        9.001        0.123        0.006       48.385        3.403        0.005      331.450       -0.529      864.998
04/09/2015  06:27:00        7.685      -35.385        5.444        8.998        6.737        7.132       80.962       45.389       50.867        0.076        0.009       36.210        4.567        0.016      331.272       -0.821      864.993
04/09/2015  06:28:00       14.209      -44.642        1.309        8.065       11.002        4.716       65.041      121.048       22.245        0.120        0.010       46.848        5.284        0.013      331.262       -0.835      864.978
04/09/2015  06:29:00       34.262      -55.358        0.839        4.123        3.357        2.103       17.003       11.272        4.423        0.214        0.002       65.103        1.382        0.000      331.223       -0.902      864.970
04/09/2015  06:30:00       29.130      -55.256        3.268        3.113        4.264        2.199        9.689       18.179        4.835        0.197        0.002       62.465        1.852        0.001      331.361       -0.671      864.959
04/09/2015  06:31:00       31.412      -43.008        2.715        4.924        4.645        1.712       24.245       21.574        2.932        0.145        0.002       53.258        1.099        0.000      331.534       -0.390      864.947
04/09/2015  06:32:00       30.991      -26.866        3.000        4.439        3.894        2.281       19.702       15.163        5.205        0.087        0.002       41.015        0.976        0.001      331.240       -0.872      864.949
04/09/2015  06:33:00       32.228      -20.794        2.123        3.805        3.927        1.959       14.476       15.424        3.839        0.075        0.002       38.354        1.664        0.002      331.183       -0.967      864.949
04/09/2015  06:34:00       29.756      -15.998        2.453        7.013        4.101        2.469       49.178       16.821        6.098        0.061        0.004       33.784        1.174        0.001      331.075       -1.143      864.957
04/09/2015  06:35:00       30.973      -29.970        3.884        3.379        3.882        2.468       11.415       15.070        6.092        0.095        0.002       43.099        2.160        0.003      331.202       -0.934      864.954
04/09/2015  06:36:00       29.623      -32.774        4.037        3.371        3.051        2.501       11.363        9.311        6.254        0.100        0.001       44.177        0.879        0.000      331.223       -0.898      864.964
04/09/2015  06:37:00       36.229      -27.513        2.600        4.877        4.625        2.513       23.786       21.393        6.316        0.106        0.003       45.492        2.399        0.003      331.196       -0.945      864.971
04/09/2015  06:38:00       37.289      -27.690        2.579        3.516        3.995        2.456       12.360       15.957        6.031        0.110        0.002       46.446        2.289        0.002      331.309       -0.755      864.968
04/09/2015  06:39:00       29.618      -21.304        3.109        6.661        3.405        3.229       44.375       11.594       10.425        0.070        0.003       36.484        2.532        0.005      331.252       -0.854      864.973
04/09/2015  06:40:00       23.323      -17.338        1.254        4.172        3.157        1.982       17.404        9.967        3.927        0.044        0.002       29.061        0.625        0.000      331.209       -0.924      864.980
04/09/2015  06:41:00       14.187      -24.831        1.824        8.043        4.987        2.434       64.689       24.869        5.924        0.046        0.005       28.598        1.228        0.002      331.294       -0.783      864.978
04/09/2015  06:42:00       -0.507      -12.988        3.209        8.442        6.531        4.725       71.262       42.658       22.325        0.016        0.007       12.998        3.615        0.077      331.226       -0.894      864.982
04/09/2015  06:43:00       -6.439       -8.611        6.186        4.264        6.203        6.069       18.183       38.476       36.835        0.012        0.005       10.752        4.288        0.159      331.055       -1.176      864.987
04/09/2015  06:44:00       -4.864      -20.625        4.437        5.379        9.740        5.648       28.933       94.871       31.900        0.031        0.008       21.190        4.857        0.053      331.120       -1.070      864.997
04/09/2015  06:45:00        0.211      -19.185        4.823        6.828       50.125        8.077       46.623     2512.500       65.238        0.151        0.131       19.186        4.463        0.054      331.437       -0.548      865.002
04/09/2015  06:46:00        8.846      -35.720        2.883       26.230       11.711        9.780      688.022      137.142       95.654        0.114        0.046       36.799       13.767        0.140      331.537       -0.384      865.008
04/09/2015  06:47:00        9.957      -30.034        3.084        8.032        8.024        4.936       64.515       64.381       24.362        0.058        0.008       31.642        3.734        0.014      331.582       -0.310      865.009
04/09/2015  06:48:00       22.065      -22.559        6.423       22.608       19.674       20.328      511.106      387.076      413.226        0.117        0.066       31.556       21.494        0.464      331.501       -0.442      865.013
04/09/2015  06:49:00       14.699      -18.802        4.184       27.686       30.544       27.193      766.511      932.933      739.436        0.151        0.122       23.866       32.494        1.854      331.291       -0.787      865.017
04/09/2015  06:50:00        7.206      -15.706        1.472        3.211        6.431        3.053       10.311       41.361        9.320        0.018        0.003       17.280        3.393        0.039      331.299       -0.772      865.027
04/09/2015  06:51:00        7.134       -4.585        1.488        2.071        2.411        1.645        4.291        5.813        2.706        0.004        0.001        8.481        1.155        0.019      331.322       -0.739      865.022
04/09/2015  06:52:00        2.838       -9.019        0.211        2.420        5.244        2.514        5.855       27.497        6.318        0.006        0.002        9.455        2.082        0.048      331.377       -0.650      865.022
04/09/2015  06:53:00       -7.284      -19.225        3.004        7.403        5.260        6.713       54.810       27.665       45.062        0.028        0.006       20.559        4.230        0.042      331.482       -0.474      865.017
04/09/2015  06:54:00       -5.531      -22.880       -2.196        5.185        6.483        4.301       26.886       42.036       18.498        0.032        0.004       23.539        2.024        0.007      331.438       -0.545      865.008
04/09/2015  06:55:00       -2.864      -19.871        7.393        4.502        7.775        6.221       20.264       60.451       38.699        0.029        0.006       20.076        3.203        0.025      331.580       -0.311      864.994
04/09/2015  06:56:00        7.177      -29.624        1.046        6.719        7.286        5.011       45.148       53.091       25.109        0.053        0.006       30.481        4.766        0.024      331.540       -0.377      864.994
04/09/2015  06:57:00       21.173      -23.994        0.212        3.874        2.868        1.810       15.011        8.224        3.278        0.053        0.001       32.001        0.559        0.000      331.557       -0.352      864.983
04/09/2015  06:58:00       25.587      -20.051        1.850        3.221        2.771        2.249       10.375        7.680        5.057        0.054        0.001       32.508        1.368        0.002      331.552       -0.353      864.983
04/09/2015  06:59:00       21.010      -24.338        0.415        3.043        2.871        2.032        9.259        8.242        4.128        0.053        0.001       32.152        1.229        0.001      331.563       -0.343      864.985
04/09/2015  07:00:00       13.204      -22.307        0.380        4.304        3.450        1.400       18.521       11.902        1.961        0.035        0.002       25.922        1.691        0.004      331.601       -0.276      864.996
04/09/2015  07:01:00        5.490      -18.342       -0.249        4.760        4.875        3.352       22.658       23.770       11.236        0.021        0.003       19.146        2.655        0.019      331.618       -0.251      865.001
04/09/2015  07:02:00       -4.039       -5.294        3.740        7.543        6.884        3.961       56.889       47.388       15.691        0.009        0.006        6.659        4.484        0.453      331.670       -0.165      865.011
04/09/2015  07:03:00       -3.246       -3.388        3.266        3.347        3.428        3.190       11.201       11.749       10.176        0.003        0.002        4.692        2.372        0.256      331.740       -0.050      865.008
04/09/2015  07:04:00       -8.050      -13.464        7.402        4.473        7.877        4.892       20.005       62.051       23.935        0.020        0.005       15.687        3.928        0.063      331.623       -0.241      865.002
04/09/2015  07:05:00       -9.331      -21.200       13.034        7.059        7.866        6.941       49.827       61.882       48.172        0.043        0.008       23.162        4.978        0.046      331.698       -0.119      864.995
04/09/2015  07:06:00      -14.116      -35.542        9.678        7.592        5.840        8.762       57.639       34.108       76.771        0.086        0.008       38.242        4.446        0.014      331.795        0.041      864.985
04/09/2015  07:07:00      -20.538      -36.797        1.728        6.780        6.723        5.048       45.974       45.196       25.485        0.095        0.006       42.141        2.598        0.004      331.599       -0.283      864.978
04/09/2015  07:08:00      -12.404      -31.109        6.913       10.045        8.270        8.436      100.909       68.398       71.171        0.070        0.012       33.490        6.801        0.041      331.679       -0.149      864.975
04/09/2015  07:09:00       -2.689      -34.749        8.367        7.090       10.629        7.055       50.269      112.983       49.771        0.075        0.011       34.853        4.605        0.017      331.894        0.204      864.986
04/09/2015  07:10:00       -1.118      -33.972       10.709        7.833        9.341        7.057       61.353       87.246       49.806        0.073        0.010       33.991        4.899        0.021      331.890        0.196      864.997
04/09/2015  07:11:00        8.671      -40.008        8.725        9.998       10.019       10.889       99.964      100.377      118.563        0.104        0.016       40.937        5.286        0.017      331.967        0.324      865.001
04/09/2015  07:12:00        5.544      -40.128        4.977       10.786       11.408       11.612      116.333      130.146      134.832        0.102        0.019       40.509        6.902        0.029      332.050        0.460      865.006
04/09/2015  07:13:00       10.526      -53.018       -0.375       11.398       16.854       10.717      129.903      284.047      114.863        0.173        0.026       54.053        8.834        0.027      332.105        0.551      865.013
04/09/2015  07:14:00        6.038      -42.007        0.853       10.242       11.761        7.469      104.901      138.321       55.784        0.105        0.015       42.439        5.030        0.014      332.133        0.597      865.017
04/09/2015  07:15:00        5.121      -33.147        1.887        9.494       12.177       11.215       90.140      148.285      125.785        0.075        0.018       33.540        9.843        0.086      332.077        0.505      865.024
04/09/2015  07:16:00       15.947      -36.164       -3.041        3.974        6.040        2.925       15.792       36.487        8.555        0.082        0.003       39.524        1.582        0.002      331.921        0.248      865.034
04/09/2015  07:17:00       12.237      -22.578       -0.671        3.298        3.959        1.892       10.878       15.674        3.580        0.035        0.002       25.681        1.003        0.002      332.014        0.403      865.034
04/09/2015  07:18:00        5.299      -13.310       -3.529        3.355        2.248        1.659       11.257        5.053        2.754        0.012        0.001       14.325        1.981        0.019      332.148        0.618      865.045
04/09/2015  07:19:00        2.838      -15.055        4.098        6.332        6.436       10.470       40.092       41.419      109.616        0.022        0.010       15.320        6.478        0.179      332.376        0.999      865.050
04/09/2015  07:20:00       -9.906      -28.317       18.346        6.357        6.898        6.075       40.408       47.585       36.900        0.068        0.006       29.999        1.508        0.003      332.383        1.008      865.052
04/09/2015  07:21:00      -16.925      -26.309        9.408        8.220       10.974        8.642       67.562      120.425       74.689        0.066        0.013       31.283        4.875        0.024      332.293        0.862      865.060
04/09/2015  07:22:00      -25.642      -29.513        1.116        5.551        6.879        5.784       30.813       47.325       33.449        0.082        0.006       39.096        3.164        0.007      332.283        0.845      865.070
04/09/2015  07:23:00      -23.295      -31.790        0.994        6.765        6.045        5.074       45.768       36.537       25.748        0.083        0.005       39.411        1.049        0.001      332.291        0.859      865.071
04/09/2015  07:24:00      -22.511      -35.787        0.224        3.541        3.578        2.694       12.542       12.801        7.256        0.091        0.002       42.278        0.814        0.000      332.335        0.928      865.075
04/09/2015  07:25:00      -21.403      -28.993        3.289        4.394        5.052        6.649       19.305       25.527       44.204        0.070        0.004       36.037        3.079        0.007      332.508        1.217      865.082
04/09/2015  07:26:00      -30.408      -29.112       -1.324        4.837        4.765        4.187       23.398       22.702       17.533        0.092        0.003       42.097        1.673        0.002      332.465        1.145      865.080
04/09/2015  07:27:00      -35.410      -24.852       -1.165        6.547        5.880        4.418       42.859       34.570       19.522        0.098        0.005       43.260        3.396        0.006      332.534        1.259      865.083
04/09/2015  07:28:00      -41.306      -20.455       -4.067        8.885        6.480        3.805       78.940       41.994       14.476        0.114        0.007       46.093        4.188        0.008      332.555        1.293      865.084
04/09/2015  07:29:00      -39.393      -16.064       -2.570       13.435        7.412        6.035      180.511       54.933       36.418        0.104        0.014       42.542        7.769        0.033      332.603        1.373      865.089
04/09/2015  07:30:00      -29.656      -14.860       -0.274       10.840        7.668        6.122      117.496       58.797       37.482        0.066        0.011       33.171        6.241        0.035      332.803        1.705      865.088
04/09/2015  07:31:00      -30.570      -30.598        9.485       10.062        9.193        9.366      101.245       84.509       87.725        0.112        0.014       43.252        7.696        0.032      332.867        1.810      865.090
04/09/2015  07:32:00      -24.281      -22.078        0.488        7.724        8.749       10.320       59.662       76.537      106.499        0.066        0.012       32.818        6.605        0.041      332.837        1.761      865.086
04/09/2015  07:33:00      -28.164      -27.173        1.313        7.787        9.209        8.692       60.635       84.810       75.547        0.088        0.011       39.135        4.231        0.012      332.909        1.878      865.084
04/09/2015  07:34:00      -21.677      -24.853        5.065        8.978        7.430       10.331       80.609       55.201      106.730        0.068        0.012       32.978        6.071        0.034      333.017        2.057      865.085
04/09/2015  07:35:00      -37.295      -37.383       -4.054        6.263        7.240        5.815       39.222       52.417       33.811        0.147        0.006       52.805        2.212        0.002      332.781        1.667      865.090
04/09/2015  07:36:00      -36.231      -41.927        9.022        9.054       11.940        8.877       81.973      142.553       78.806        0.173        0.015       55.412        5.743        0.011      332.913        1.886      865.104
04/09/2015  07:37:00      -43.610      -48.372        3.530       10.571        6.732        8.406      111.745       45.320       70.657        0.224        0.011       65.128        5.717        0.008      332.812        1.718      865.118
04/09/2015  07:38:00      -24.263      -51.915        1.834        8.999       11.483       11.312       80.982      131.870      127.952        0.181        0.017       57.305        2.543        0.002      332.966        1.974      865.128
04/09/2015  07:39:00      -35.307      -45.228        1.804       11.690        8.796       10.573      136.666       77.375      111.790        0.181        0.016       57.377        7.172        0.016      332.923        1.902      865.138
04/09/2015  07:40:00      -31.749      -43.673        2.443       13.657       15.616        9.657      186.526      243.873       93.264        0.172        0.026       53.994        8.605        0.025      333.014        2.052      865.142
04/09/2015  07:41:00      -44.139      -47.140        1.980        9.654        9.645       10.435       93.193       93.028      108.894        0.223        0.015       64.579        6.630        0.011      332.889        1.848      865.140
04/09/2015  07:42:00      -26.604      -54.948        3.193        8.828       10.342        9.069       77.940      106.950       82.253        0.200        0.013       61.050        4.536        0.006      333.012        2.049      865.142
04/09/2015  07:43:00      -29.668      -54.599        1.971       11.287       11.041       11.549      127.386      121.906      133.372        0.212        0.019       62.139        7.678        0.015      332.991        2.014      865.150
04/09/2015  07:44:00      -19.816      -51.256       -3.009       12.302       17.383       11.093      151.332      302.176      123.047        0.180        0.029       54.953        9.315        0.029      332.884        1.838      865.156
04/09/2015  07:45:00      -26.537      -45.313        4.577       13.634       14.464       11.537      185.898      209.195      133.113        0.165        0.026       52.512        5.795        0.012      333.130        2.244      865.156
04/09/2015  07:46:00      -12.114      -56.618        0.917       16.073       12.385       12.256      258.342      153.400      150.203        0.196        0.028       57.899        9.240        0.025      333.179        2.325      865.157
04/09/2015  07:47:00       -2.672      -56.445      -11.773       17.529       24.566       14.500      307.275      603.466      210.256        0.223        0.056       56.508       14.312        0.064      333.118        2.224      865.154
04/09/2015  07:48:00      -10.403      -37.848        5.702       17.842       15.603       11.375      318.350      243.460      129.398        0.113        0.035       39.252        5.870        0.022      333.203        2.365      865.153
04/09/2015  07:49:00      -20.493      -43.958        4.631       12.053       11.811       12.004      145.268      139.501      144.093        0.140        0.021       48.500        7.271        0.022      333.208        2.372      865.155
04/09/2015  07:50:00       -7.259      -65.210        4.019       14.935       15.525       14.970      223.062      241.031      224.106        0.250        0.034       65.613        5.035        0.006      333.261        2.461      865.153
04/09/2015  07:51:00      -11.168      -53.005        4.020       13.315       17.012       13.886      177.299      289.419      192.808        0.180        0.033       54.169       10.077        0.035      333.220        2.392      865.165
04/09/2015  07:52:00      -16.012      -87.094       -4.467        8.252       17.028       11.027       68.094      289.957      121.603        0.417        0.024       88.554       10.558        0.014      333.031        2.079      865.171
04/09/2015  07:53:00      -40.111      -91.285       12.164       12.868       13.615       11.399      165.579      185.358      129.929        0.529        0.024       99.709        1.737        0.000      333.162        2.298      865.179
04/09/2015  07:54:00      -31.651      -80.121        5.318       13.179       11.404       11.754      173.679      130.051      138.148        0.395        0.022       86.146        6.809        0.006      333.104        2.199      865.174
04/09/2015  07:55:00       -5.548      -88.344        5.778       15.005       21.635       13.025      225.149      468.076      169.653        0.437        0.043       88.519        9.925        0.013      333.220        2.392      865.160
04/09/2015  07:56:00       10.415      -39.893       -0.975        7.146       26.867       14.318       51.070      721.817      205.012        0.134        0.049       41.230        9.598        0.054      333.273        2.480      865.149
04/09/2015  07:57:00        5.946      -49.861       -0.374       22.403       30.329       14.484      501.893      919.825      209.776        0.208        0.082       50.215       16.979        0.114      333.388        2.669      865.135
04/09/2015  07:58:00        6.201      -39.491        4.132       14.111       13.778       14.859      199.111      189.820      220.794        0.111        0.030       39.975       10.003        0.063      333.473        2.811      865.124
04/09/2015  07:59:00      -11.672      -35.555        5.497       16.325       18.980       13.879      266.505      360.232      192.614        0.112        0.041       37.422       11.223        0.090      333.543        2.926      865.119
04/09/2015  08:00:00       -0.798      -43.748       14.719       19.050       20.706       10.335      362.889      428.752      106.805        0.151        0.045       43.755        8.300        0.036      333.599        3.020      865.119
04/09/2015  08:01:00        1.506      -25.551        7.271       16.451       10.137       11.892      270.650      102.764      141.408        0.061        0.026       25.596        7.896        0.095      333.509        2.869      865.130
04/09/2015  08:02:00      -16.537      -46.972        8.902       14.541       18.226       10.109      211.443      332.188      102.188        0.160        0.032       49.798        7.879        0.025      333.662        3.123      865.140
04/09/2015  08:03:00       -3.981      -75.928        2.446       20.242       21.626       10.987      409.740      467.665      120.722        0.339        0.050       76.032       11.712        0.024      333.461        2.790      865.141
04/09/2015  08:04:00       -9.919      -63.752       -0.888       13.128       15.641        9.267      172.339      244.639       85.868        0.233        0.025       64.519        7.738        0.014      333.439        2.755      865.147
04/09/2015  08:05:00        0.656      -48.220       10.595       12.072       15.291       11.205      145.745      233.816      125.558        0.147        0.025       48.224        8.635        0.032      334.178        3.979      865.144
04/09/2015  08:06:00       -7.022      -58.275        1.340       10.800       18.582       11.918      116.643      345.278      142.045        0.203        0.030       58.696       10.318        0.031      333.721        3.222      865.143
04/09/2015  08:07:00      -16.258      -48.895        8.195       15.706       17.775       13.246      246.663      315.943      175.459        0.173        0.037       51.527        9.392        0.033      334.106        3.860      865.145
04/09/2015  08:08:00       -9.989      -50.483        5.400       11.637       16.867       14.550      135.425      284.479      211.709        0.165        0.032       51.462       12.223        0.056      333.918        3.549      865.149
04/09/2015  08:09:00      -14.037      -66.561       -2.059       14.060       19.145       13.043      197.688      366.537      170.129        0.268        0.037       68.025        9.773        0.021      333.678        3.151      865.159
04/09/2015  08:10:00      -29.104      -68.807        0.459       20.288       18.091       16.265      411.609      327.288      264.537        0.329        0.050       74.709       10.174        0.019      333.659        3.119      865.160
04/09/2015  08:11:00      -36.696      -47.724        9.098       15.898       18.285       13.498      252.738      334.355      182.187        0.224        0.038       60.201        8.401        0.019      333.882        3.489      865.172
04/09/2015  08:12:00      -65.470      -36.618       -1.774       22.801       19.342       15.990      519.889      374.123      255.675        0.339        0.057       75.015       16.796        0.050      333.700        3.187      865.175
04/09/2015  08:13:00      -59.312       -0.159       -8.057       23.324       12.417       10.339      544.010      154.179      106.900        0.219        0.040       59.312       12.882        0.047      333.689        3.166      865.173
04/09/2015  08:14:00      -61.401        0.999       -7.073       21.806       17.627       10.546      475.495      310.725      111.211        0.236        0.045       61.409       12.901        0.044      333.735        3.245      865.176
04/09/2015  08:15:00      -57.459       -5.105       -5.441       25.502       15.120       12.989      650.345      228.616      168.709        0.220        0.052       57.685       15.436        0.072      333.859        3.451      865.168
04/09/2015  08:16:00      -51.523       -3.940       -6.596       22.438       15.447       12.262      503.473      238.594      150.347        0.180        0.045       51.673       14.114        0.075      333.834        3.408      865.156
04/09/2015  08:17:00      -47.323       -5.403       -6.080       24.229       19.011       13.593      587.022      361.431      184.758        0.172        0.057       47.631       15.943        0.112      333.929        3.566      865.161
04/09/2015  08:18:00      -53.115        4.676       -6.824       30.643       20.079       10.946      938.971      403.153      119.809        0.218        0.073       53.320       12.067        0.051      333.812        3.373      865.150
04/09/2015  08:19:00      -64.872        9.476       -8.016       28.544       18.184       16.841      814.777      330.671      283.620        0.290        0.071       65.560       17.243        0.069      333.982        3.656      865.151
04/09/2015  08:20:00      -29.351        7.229        7.575       26.900       21.495       16.594      723.626      462.030      275.349        0.122        0.073       30.228       14.836        0.241      334.200        4.016      865.152
04/09/2015  08:21:00      -71.480      -50.153      -15.683       24.499       26.259       15.708      600.222      689.550      246.727        0.470        0.077       87.320        6.767        0.006      333.822        3.388      865.151
04/09/2015  08:22:00      -48.887      -20.023       -9.237       11.354       15.337        9.261      128.919      235.218       85.774        0.166        0.022       52.829        8.903        0.028      333.861        3.454      865.151
04/09/2015  08:23:00      -26.456       -6.123       -2.549       15.405       10.095       15.794      237.308      101.911      249.441        0.067        0.029       27.155       13.568        0.250      334.133        3.906      865.147
04/09/2015  08:24:00      -14.789      -12.900        8.132       11.593       13.140       14.663      134.395      172.656      214.995        0.049        0.026       19.625        9.636        0.241      334.390        4.331      865.143
04/09/2015  08:25:00      -24.422      -25.492       -0.516       13.698       10.967       18.515      187.624      120.284      342.787        0.095        0.033       35.302        8.793        0.062      334.145        3.924      865.140
04/09/2015  08:26:00      -12.548      -15.170       12.670       17.419       13.436       15.075      303.433      180.535      227.251        0.063        0.036       19.687        7.524        0.146      334.622        4.716      865.137
04/09/2015  08:27:00      -46.895        3.976       -4.326       27.227       17.411       15.820      741.329      303.127      250.281        0.176        0.065       47.063       17.110        0.132      334.367        4.294      865.141
04/09/2015  08:28:00      -43.650        8.150       -4.893       18.915       14.548       14.494      357.787      211.655      210.082        0.139        0.039       44.405       13.433        0.092      334.353        4.270      865.145
04/09/2015  08:29:00      -60.259       -9.108       -7.410       24.459       15.442       14.327      598.225      238.471      205.265        0.241        0.052       60.943       15.567        0.065      334.260        4.116      865.139
04/09/2015  08:30:00      -48.286       23.402      -10.478       17.050       18.688        9.620      290.713      349.260       92.538        0.186        0.037       53.658       10.116        0.036      333.986        3.663      865.139
04/09/2015  08:31:00      -39.767       20.101       -0.925       15.761       21.516       11.348      248.396      462.937      128.788        0.141        0.042       44.558       11.919        0.072      334.233        4.070      865.121
04/09/2015  08:32:00      -88.377      -64.241       -9.394       27.650       20.248       16.042      764.545      409.982      257.349        0.673        0.072      109.258       15.516        0.020      334.205        4.025      865.107
04/09/2015  08:33:00      -81.261      -39.673      -10.245       24.578       12.925        9.631      604.088      167.066       92.755        0.457        0.043       90.428        9.311        0.011      334.133        3.906      865.095
04/09/2015  08:34:00      -49.063       10.779       -8.589       20.278       26.945        8.691      411.199      726.048       75.528        0.190        0.061       50.233        9.424        0.035      334.203        4.021      865.088
04/09/2015  08:35:00      -21.656       12.236       -3.611       12.920       13.627       14.315      166.917      185.705      204.919        0.059        0.028       24.874       11.856        0.227      334.369        4.297      865.075
04/09/2015  08:36:00       -6.266      -15.781        1.830       13.538       12.489       16.921      183.275      155.967      286.319        0.046        0.031       16.980        7.839        0.213      335.006        5.355      865.070
04/09/2015  08:37:00       -1.385        1.264       12.518       22.517       14.014       15.997      507.009      196.393      255.899        0.056        0.048        1.875        9.612       26.287      334.946        5.254      865.060
04/09/2015  08:38:00      -61.838       -4.573       -3.983       31.767       35.100       15.277     1009.174     1231.984      233.384        0.317        0.124       62.007       15.954        0.066      334.538        4.577      865.056
04/09/2015  08:39:00      -31.875       -7.501       14.470       23.558       26.229       22.883      554.988      687.979      523.652        0.152        0.088       32.746       19.392        0.351      334.839        5.077      865.054
04/09/2015  08:40:00      -97.916       33.021      -13.435       35.556       24.673       11.719     1264.207      608.757      137.331        0.643        0.101      103.334       16.448        0.025      334.498        4.511      865.062
04/09/2015  08:41:00      -31.112      -13.695       -2.782       17.791       21.358       17.278      316.534      456.176      298.514        0.112        0.054       33.993       13.581        0.160      334.833        5.068      865.058
04/09/2015  08:42:00      -90.227        8.094       -7.501       41.362       25.696       17.080     1710.778      660.286      291.725        0.546        0.133       90.589       21.789        0.058      334.749        4.927      865.051
04/09/2015  08:43:00      -94.473      -30.754      -12.178       28.458       23.959       14.460      809.875      574.028      209.081        0.581        0.080       99.352       16.102        0.026      334.508        4.528      865.036
04/09/2015  08:44:00      -38.207      -67.906        2.439       32.992       25.478       13.477     1088.486      649.148      181.629        0.400        0.096       77.916        9.724        0.016      334.616        4.707      865.026
04/09/2015  08:45:00       -2.798      -83.346        3.693       22.728       12.541       17.059      516.554      157.269      291.024        0.397        0.048       83.393       10.482        0.016      334.569        4.630      865.009
04/09/2015  08:46:00        4.152      -14.709       -2.327       14.511       24.377       13.890      210.583      594.223      192.945        0.062        0.050       15.283       11.160        0.533      334.636        4.740      865.016
04/09/2015  08:47:00       38.574      -25.178       -7.980       23.279       12.260       13.816      541.917      150.304      190.869        0.153        0.044       46.064       10.842        0.055      334.416        4.375      864.995
04/09/2015  08:48:00       62.145      -17.355        8.314       15.811       15.607       18.041      249.992      243.593      325.468        0.253        0.041       64.522       12.841        0.040      334.670        4.796      864.995
04/09/2015  08:49:00       39.928      -34.921        7.787       29.979       10.747       13.395      898.754      115.502      179.432        0.203        0.060       53.044        8.031        0.023      334.772        4.964      864.990
04/09/2015  08:50:00      -74.495      -15.526       -3.486       37.376       33.877       18.693     1397.002     1147.630      349.440        0.435        0.145       76.096       23.290        0.094      334.911        5.196      864.982
04/09/2015  08:51:00      -96.994      -41.010       -8.065       32.194       25.315       14.902     1036.478      640.863      222.083        0.653        0.095      105.307       18.643        0.031      334.867        5.123      864.971
04/09/2015  08:52:00      -93.262      -26.723       -9.747       27.758       36.910       15.488      770.528     1362.314      239.887        0.594        0.119       97.015       18.241        0.035      334.820        5.043      864.962
04/09/2015  08:53:00      -74.369       19.755       -8.673       32.123       23.315       14.650     1031.907      543.598      214.635        0.389        0.090       76.948       18.539        0.058      334.931        5.230      864.950
04/09/2015  08:54:00      -96.717       46.391      -15.633       37.007       27.756       15.516     1369.505      770.374      240.756        0.707        0.119      107.267       19.682        0.034      334.805        5.020      864.953
04/09/2015  08:55:00      -87.386       14.667      -22.397       32.282       19.247       14.256     1042.148      370.440      203.224        0.498        0.081       88.608       16.017        0.033      334.710        4.864      864.953
04/09/2015  08:56:00      -31.844      -26.678       10.357       15.079       23.013       16.817      227.367      529.617      282.815        0.144        0.052       41.543       12.707        0.094      335.000        5.343      864.950
04/09/2015  08:57:00      -39.248       29.804      -14.267       43.611       17.208       13.614     1901.954      296.118      185.353        0.251        0.119       49.281       20.186        0.168      334.731        4.898      864.960
04/09/2015  08:58:00      -29.969        4.718        1.932       26.048       33.243       22.612      678.508     1105.116      511.280        0.161        0.115       30.338       16.610        0.300      335.197        5.673      864.956
04/09/2015  08:59:00      -26.970      -52.923        7.379       32.321       21.939       21.556     1044.637      481.328      464.673        0.279        0.100       59.399       13.603        0.052      334.953        5.265      864.957
04/09/2015  09:00:00      -91.397      -52.997      -11.707       30.086       21.114       17.995      905.156      445.822      323.823        0.649        0.084      105.651       18.636        0.031      334.753        4.933      864.965
04/09/2015  09:01:00      -60.843      -40.442       -3.571       28.515       22.665       20.785      813.090      513.699      432.032        0.355        0.088       73.057       19.877        0.074      334.949        5.259      864.970
04/09/2015  09:02:00       -5.254      -79.515       -7.423       22.742       21.057       19.861      517.179      443.385      394.470        0.388        0.068       79.688       12.403        0.024      334.966        5.287      864.964
04/09/2015  09:03:00       -5.438     -101.870        2.403       16.920       16.028       19.789      286.292      256.900      391.597        0.567        0.047      102.015       11.443        0.013      334.959        5.276      864.949
04/09/2015  09:04:00       37.830      -77.783        4.208       30.580       37.490       22.786      935.158     1405.508      519.207        0.518        0.143       86.494       16.249        0.035      335.042        5.412      864.949
04/09/2015  09:05:00       11.983      -23.116        0.813       20.438       16.009        9.854      417.716      256.278       97.107        0.072        0.039       26.037        6.925        0.071      335.162        5.613      864.944
04/09/2015  09:06:00      -35.910      -58.589        8.546       14.900       20.915       16.573      222.009      437.428      274.650        0.286        0.047       68.719       11.152        0.026      335.253        5.763      864.936
04/09/2015  09:07:00      -65.542       36.884        3.112       43.300       65.081       26.382     1874.902     4235.479      695.991        0.623        0.340       75.208       28.704        0.146      335.581        6.310      864.929
04/09/2015  09:08:00     -122.394       75.026      -15.682       51.055       25.585       22.330     2606.608      654.590      498.633        1.231        0.188      143.559       28.816        0.040      335.402        6.012      864.927
04/09/2015  09:09:00      -89.292       52.310       -9.435       30.974       29.221       16.569      959.380      853.839      274.547        0.644        0.104      103.486       17.839        0.030      335.264        5.783      864.927
04/09/2015  09:10:00      -92.432      -22.941      -17.125       42.033       24.530       16.205     1766.796      601.739      262.601        0.600        0.132       95.237       22.086        0.054      335.262        5.779      864.921
04/09/2015  09:11:00     -105.614      -65.779      -14.546       26.127       16.535       15.329      682.634      273.403      234.969        0.844        0.060      124.424       15.882        0.016      335.102        5.515      864.909
04/09/2015  09:12:00      -45.942      -90.075        0.610       21.006       24.600       22.201      441.236      605.144      492.885        0.588        0.077      101.115       20.242        0.040      335.121        5.546      864.902
04/09/2015  09:13:00      -31.742       39.568        5.338       24.170       64.678       28.904      584.183     4183.248      835.433        0.410        0.280       50.727       27.078        0.285      335.599        6.339      864.896
04/09/2015  09:14:00      -90.102       31.561       -0.677       54.879       77.699       28.657     3011.676     6037.093      821.200        0.949        0.493       95.470       34.244        0.129      335.761        6.609      864.887
04/09/2015  09:15:00     -117.480        4.083      -17.370       50.322       28.948       18.476     2532.328      837.985      341.373        0.892        0.186      117.551       26.915        0.052      335.566        6.283      864.878
04/09/2015  09:16:00     -140.504       43.892      -23.572       58.674       37.262       24.566     3442.687     1388.470      603.495        1.383        0.272      147.200       33.192        0.051      335.577        6.305      864.875
04/09/2015  09:17:00     -140.020       49.479      -22.534       42.031       27.018       20.898     1766.603      729.982      436.714        1.275        0.147      148.505       23.883        0.026      335.325        5.885      864.881
04/09/2015  09:18:00      -87.279       49.633      -11.885       43.556       32.538       21.263     1897.090     1058.692      452.124        0.681        0.170      100.404       24.183        0.058      335.502        6.178      864.889
04/09/2015  09:19:00     -152.792      -24.526      -23.534       47.544       25.235       21.541     2260.424      636.809      464.032        1.393        0.168      154.748       27.140        0.031      335.358        5.940      864.883
04/09/2015  09:20:00     -151.912      -30.301      -21.177       37.194       56.664       16.580     1383.413     3210.858      274.907        1.466        0.243      154.905       22.102        0.020      335.453        6.097      864.883
04/09/2015  09:21:00      -53.609       82.735       -6.858       29.729       40.508       19.969      883.800     1640.911      398.778        0.634        0.146       98.585       21.476        0.047      335.525        6.218      864.880
04/09/2015  09:22:00      -37.730       80.435        8.315       17.965       41.083       25.303      322.725     1687.785      640.232        0.531        0.133       88.845       15.762        0.031      335.499        6.174      864.872
04/09/2015  09:23:00      -78.407       22.342       -9.705       41.648       25.212       19.141     1734.526      635.632      366.393        0.474        0.137       81.528       24.360        0.089      335.448        6.087      864.861
04/09/2015  09:24:00     -134.714       48.956      -24.500       41.407       23.795       15.300     1714.561      566.199      234.083        1.183        0.126      143.334       19.993        0.019      335.311        5.860      864.857
04/09/2015  09:25:00     -108.313       57.218      -16.947       47.299       26.445       17.961     2237.162      699.343      322.615        0.928        0.163      122.497       25.640        0.044      335.486        6.151      864.841
04/09/2015  09:26:00      -56.203       -3.869       -8.972       37.608       35.285       20.115     1414.371     1245.031      404.633        0.316        0.153       56.336       21.185        0.141      335.534        6.232      864.832
04/09/2015  09:27:00      -21.727      -28.425        2.214       25.863       17.755       23.096      668.887      315.241      533.408        0.140        0.076       35.778       18.406        0.265      335.769        6.625      864.834
04/09/2015  09:28:00     -100.760       44.225      -15.908       55.957       45.816       18.611     3131.218     2099.077      346.387        0.897        0.279      110.038       26.294        0.057      335.810        6.692      864.833
04/09/2015  09:29:00      -48.398      137.118       -8.267       16.299       30.066       20.076      265.645      903.986      403.048        1.139        0.079      145.408       13.685        0.009      335.464        6.113      864.842
04/09/2015  09:30:00       -3.752       67.426       18.249       28.742       25.376       19.145      826.121      643.951      366.517        0.336        0.092       67.531       16.751        0.062      336.027        7.054      864.854
04/09/2015  09:31:00     -102.399       21.991       -9.504       57.352       55.887       25.365     3289.294     3123.390      643.407        0.906        0.353      104.734       33.839        0.104      336.098        7.174      864.852
04/09/2015  09:32:00      -83.784      107.909       -9.366       34.663       36.286       23.856     1201.534     1316.659      569.087        1.092        0.154      136.617       20.690        0.023      335.679        6.474      864.857
04/09/2015  09:33:00     -102.512       69.274      -11.775       75.546       38.198       22.857     5707.170     1459.095      522.440        1.157        0.384      123.724       33.381        0.073      335.777        6.637      864.858
04/09/2015  09:34:00      -68.300       72.542       -9.321       41.568       22.964       23.971     1727.907      527.331      574.608        0.642        0.141       99.636       23.224        0.054      335.791        6.660      864.867
04/09/2015  09:35:00      -42.060       39.719       11.785       28.185       29.051       23.166      794.403      843.934      536.658        0.283        0.109       57.850       21.272        0.135      336.022        7.044      864.873
04/09/2015  09:36:00      -41.541       56.820       -0.303       21.355       17.338       19.121      456.050      300.610      365.626        0.304        0.056       70.386       13.631        0.038      335.774        6.631      864.859
04/09/2015  09:37:00      -59.512        8.282       -6.711       39.549       21.268       21.716     1564.125      452.326      471.573        0.307        0.124       60.086       24.526        0.167      335.794        6.666      864.856
04/09/2015  09:38:00      -62.687      -15.514        3.389       46.060       30.130       25.791     2121.523      907.791      665.166        0.394        0.185       64.578       32.298        0.250      335.999        7.008      864.840
04/09/2015  09:39:00      -23.310       15.748       14.983       20.538       18.640       14.564      421.824      347.431      212.102        0.100        0.049       28.131       13.155        0.219      336.630        8.061      864.836
04/09/2015  09:40:00      -42.875      -27.870       10.677       20.594       30.944       17.063      424.114      957.514      291.140        0.220        0.084       51.137       12.219        0.057      336.026        7.051      864.822
04/09/2015  09:41:00      -26.710      -53.439       18.370       14.164       16.162       18.961      200.609      261.208      359.516        0.236        0.041       59.743       13.405        0.050      335.968        6.955      864.820
04/09/2015  09:42:00      -19.708      -52.340       18.333       12.663       20.085       17.680      160.350      403.418      312.599        0.217        0.044       55.928        5.665        0.010      335.993        6.998      864.819
04/09/2015  09:43:00       11.827      -38.312       20.444       26.967       27.393       23.880      727.203      750.352      570.257        0.204        0.102       40.096       17.985        0.201      336.373        7.632      864.813
04/09/2015  09:44:00       14.130      -29.356       14.244       16.120       29.944       17.299      259.857      896.622      299.266        0.136        0.073       32.579        6.298        0.037      336.381        7.647      864.814
04/09/2015  09:45:00       52.619       87.943        2.137       27.663       19.819       19.518      765.224      392.791      380.944        0.602        0.077      102.483       11.612        0.013      335.779        6.642      864.807
04/09/2015  09:46:00       93.659       49.243        1.856       15.869       17.200       19.553      251.819      295.855      382.313        0.606        0.046      105.815       10.389        0.010      335.832        6.729      864.799
04/09/2015  09:47:00       67.731       29.303        1.731       32.476       14.587       16.769     1054.693      212.783      281.184        0.350        0.077       73.798       14.337        0.038      335.887        6.821      864.793
04/09/2015  09:48:00       73.522        6.861        2.696       13.521       23.351       16.091      182.810      545.271      258.925        0.322        0.049       73.841        4.924        0.004      335.939        6.907      864.790
04/09/2015  09:49:00       15.133       -8.320       18.702       24.501       29.376       13.432      600.288      862.944      180.415        0.115        0.082       17.269       16.370        0.899      336.727        8.223      864.794
04/09/2015  09:50:00      -23.852      -51.323        8.166       32.578       31.154       21.810     1061.326      970.553      475.684        0.289        0.125       56.595       13.967        0.061      336.403        7.682      864.792
04/09/2015  09:51:00      -82.340      -46.572       -3.016       39.027       48.882       24.474     1523.094     2389.414      598.989        0.673        0.226       94.598       24.030        0.065      336.563        7.950      864.788
04/09/2015  09:52:00      -69.209       -2.833       -5.796       49.588       35.028       27.552     2458.952     1226.984      759.139        0.464        0.222       69.267       31.691        0.209      336.814        8.367      864.786
04/09/2015  09:53:00      -60.072       62.670       -0.822       36.896       45.989       29.258     1361.289     2115.019      856.052        0.593        0.217       86.811       24.211        0.078      336.603        8.015      864.786
04/09/2015  09:54:00      -71.221       50.268       -2.292       41.478       42.813       30.696     1720.425     1832.967      942.238        0.605        0.225       87.174       27.888        0.102      336.443        7.749      864.773
04/09/2015  09:55:00      -99.022       75.665      -15.107       35.530       19.158       24.094     1262.383      367.021      580.521        0.898        0.110      124.622       22.570        0.033      336.262        7.445      864.781
04/09/2015  09:56:00      -72.087       39.928      -10.582       36.797       20.829       19.787     1354.021      433.827      391.539        0.454        0.109       82.406       23.140        0.079      336.249        7.425      864.777
04/09/2015  09:57:00      -71.468       20.093      -13.853       44.268       19.963       18.224     1959.696      398.503      332.107        0.420        0.135       74.239       24.400        0.108      336.274        7.466      864.767
04/09/2015  09:58:00      -10.096      -15.152       -2.635       18.446       13.623       13.296      340.246      185.596      176.793        0.052        0.035       18.208       10.336        0.322      336.192        7.329      864.763
04/09/2015  09:59:00      -18.039      -41.666       11.704       29.771       15.423       20.801      886.293      237.876      432.684        0.188        0.078       45.403       16.100        0.126      336.584        7.983      864.763
04/09/2015  10:00:00      -28.970      -48.382        7.960       37.359       39.953       22.279     1395.678     1596.238      496.356        0.337        0.174       56.392       24.068        0.182      336.467        7.789      864.755
04/09/2015  10:01:00       65.066      -88.045        6.984       30.413       25.361       23.197      924.954      643.201      538.111        0.707        0.105      109.478       22.169        0.041      336.234        7.399      864.744
04/09/2015  10:02:00        0.204        0.229       15.859       56.831       24.282       21.706     3229.812      589.636      471.171        0.227        0.215        0.307       32.343    11123.831      337.096        8.840      864.748
04/09/2015  10:03:00      -98.677       42.499      -16.623       45.492       25.645       19.056     2069.518      657.650      363.130        0.745        0.155      107.440       23.402        0.047      336.475        7.802      864.755
04/09/2015  10:04:00      -80.891       19.470      -11.553       53.354       19.036       18.195     2846.613      362.385      331.072        0.530        0.177       83.201       29.759        0.128      336.365        7.618      864.753
04/09/2015  10:05:00      -32.772       33.596        5.588       23.552       17.735       19.917      554.720      314.547      396.700        0.175        0.063       46.933       18.644        0.158      336.582        7.981      864.752
04/09/2015  10:06:00      -77.983      -13.883      -17.994       56.599       31.281       17.894     3203.421      978.495      320.212        0.555        0.225       79.209       27.037        0.117      336.383        7.648      864.744
04/09/2015  10:07:00       -5.136      -42.258        8.657       11.566       22.860       19.863      133.769      522.596      394.550        0.147        0.053       42.569       13.906        0.107      336.749        8.260      864.735
04/09/2015  10:08:00        2.960      116.787        1.038       29.321       49.207       22.973      859.748     2421.338      527.744        0.873        0.190      116.824       21.666        0.034      336.505        7.853      864.744
04/09/2015  10:09:00      -42.271      144.950       -4.890       31.656       43.003       22.638     1002.112     1849.300      512.476        1.309        0.168      150.988       20.582        0.019      336.458        7.774      864.733
04/09/2015  10:10:00      -28.024       80.047       -0.907       16.801       43.392       22.033      282.278     1882.891      485.452        0.492        0.133       84.811       18.300        0.047      336.632        8.064      864.731
04/09/2015  10:11:00      -19.333      119.503       -6.549       36.041       50.619       26.588     1298.945     2562.315      706.942        0.963        0.228      121.057       20.887        0.030      336.540        7.911      864.722
04/09/2015  10:12:00       26.944      141.535        3.847       31.988       44.327       23.691     1023.233     1964.880      561.243        1.216        0.177      144.077       16.291        0.013      336.577        7.972      864.708
04/09/2015  10:13:00       -7.292       77.038       -1.345       27.105       34.624       25.038      734.667     1198.806      626.907        0.427        0.128       77.382       16.984        0.048      336.746        8.256      864.698
04/09/2015  10:14:00      -82.202       57.145      -13.975       47.377       57.790       22.064     2244.557     3339.739      486.798        0.814        0.304      100.113       21.740        0.047      336.862        8.450      864.690
04/09/2015  10:15:00      -83.499       77.960      -18.170       49.225       63.408       25.265     2423.101     4020.543      638.295        1.023        0.354      114.236       30.596        0.072      336.969        8.628      864.685
04/09/2015  10:16:00      -33.886       95.023       -0.589       40.896       54.566       19.171     1672.494     2977.467      367.518        0.760        0.251      100.885       22.664        0.050      336.931        8.564      864.682
04/09/2015  10:17:00      -42.623       90.795       -6.126       86.604       56.291       27.655     7500.319     3168.632      764.788        1.076        0.572      100.302       41.403        0.170      336.669        8.125      864.665
04/09/2015  10:18:00       41.585       98.658        1.233       38.130       40.753       27.834     1453.884     1660.831      774.738        0.768        0.194      107.064       24.609        0.053      336.765        8.288      864.653
04/09/2015  10:19:00       14.889      109.818       -3.170       22.676       40.592       22.251      514.221     1647.694      495.094        0.747        0.133      110.822        9.160        0.007      336.850        8.429      864.639
04/09/2015  10:20:00      -13.762       66.533       -2.544       26.538       26.374       23.141      704.275      695.603      535.492        0.328        0.097       67.941       14.669        0.047      336.967        8.625      864.628
04/09/2015  10:21:00      -23.070       67.249        0.854       18.189       38.686       18.500      330.845     1496.629      342.261        0.361        0.108       71.096        9.212        0.017      336.953        8.601      864.615
04/09/2015  10:22:00      -47.032      110.589       -4.213       46.968       78.548       25.628     2205.949     6169.741      656.786        1.174        0.452      120.174       22.353        0.035      337.087        8.825      864.603
04/09/2015  10:23:00     -110.904      -72.630        4.090       52.457       52.484       31.719     2751.759     2754.616     1006.097        1.205        0.326      132.570       33.778        0.065      337.287        9.160      864.595
04/09/2015  10:24:00      -87.942      -44.825       -0.498       62.289       78.776       35.026     3879.920     6205.624     1226.828        1.053        0.566       98.707       44.928        0.207      337.153        8.936      864.592
04/09/2015  10:25:00     -175.520       21.412      -30.078       87.308       67.622       29.340     7622.771     4572.677      860.840        2.261        0.653      176.821       46.271        0.068      337.123        8.884      864.586
04/09/2015  10:26:00     -188.608       22.302      -32.945       55.104       29.425       19.420     3036.450      865.846      377.133        2.072        0.214      189.922       26.799        0.020      336.949        8.593      864.578
04/09/2015  10:27:00      -96.939        3.061      -19.869       59.438       46.284       18.469     3532.921     2142.163      341.111        0.791        0.301       96.987       25.555        0.069      336.965        8.621      864.575
04/09/2015  10:28:00      -59.591      -21.423       -5.524       45.155       39.000       20.692     2038.995     1521.026      428.144        0.401        0.199       63.325       23.077        0.133      336.939        8.577      864.577
04/09/2015  10:29:00      -44.052       21.428      -13.800       26.176       13.744        9.751      685.189      188.895       95.089        0.178        0.048       48.987        9.171        0.035      336.790        8.329      864.568
04/09/2015  10:30:00       11.198       14.059      -11.018       22.519       13.768       13.616      507.091      189.552      185.397        0.066        0.044       17.974       13.633        0.575      336.802        8.349      864.571
04/09/2015  10:31:00       38.071       23.287       16.078       26.984       18.958       18.881      728.122      359.390      356.510        0.185        0.072       44.628       11.743        0.069      337.188        8.996      864.557
04/09/2015  10:32:00      -53.066       68.794       -7.241       40.259       40.805       21.632     1620.766     1665.069      467.965        0.568        0.188       86.883       23.646        0.074      337.369        9.297      864.557
04/09/2015  10:33:00     -108.533       -4.739      -16.596       64.778       32.920       25.668     4196.211     1083.713      658.859        0.901        0.297      108.636       34.608        0.101      337.346        9.259      864.558
04/09/2015  10:34:00      -57.176       28.915      -10.495       30.918       25.608       19.296      955.898      655.789      372.339        0.310        0.099       64.072       21.096        0.108      337.195        9.006      864.546
04/09/2015  10:35:00      -33.604      -60.045       27.284       43.084       35.477       46.593     1856.208     1258.589     2170.912        0.538        0.264       68.809       39.554        0.330      337.720        9.887      864.538
04/09/2015  10:36:00      -97.388      -77.810       55.659       37.278       43.088       52.706     1389.649     1856.538     2777.945        1.233        0.301      124.655       39.022        0.098      338.197       10.687      864.541
04/09/2015  10:37:00     -136.336       23.433      -22.979       58.799       52.759       22.254     3457.352     2783.557      495.238        1.320        0.337      138.335       31.725        0.053      337.362        9.286      864.540
04/09/2015  10:38:00      -76.628      128.013       -8.548       37.468       40.673       26.764     1403.815     1654.323      716.292        1.305        0.189      149.195       23.311        0.024      337.250        9.098      864.548
04/09/2015  10:39:00      -60.136      147.678       -4.441       34.018       38.864       22.612     1157.234     1510.446      511.297        1.431        0.159      159.452       21.074        0.017      337.338        9.245      864.537
04/09/2015  10:40:00      -45.680      177.907       10.027       40.577       58.816       35.351     1646.533     3459.372     1249.721        2.010        0.318      183.678       29.974        0.027      337.646        9.759      864.530
04/09/2015  10:41:00     -101.331       19.120      -12.287       75.523       46.111       24.976     5703.691     2126.217      623.794        0.962        0.423      103.119       37.919        0.135      338.068       10.467      864.519
04/09/2015  10:42:00     -233.037       -8.419      -42.339       74.769       44.552       32.600     5590.416     1984.900     1062.731        3.240        0.432      233.189       44.675        0.037      337.642        9.751      864.503
04/09/2015  10:43:00     -191.633      -62.549      -32.028       49.249       34.231       23.680     2425.476     1171.788      560.736        2.291        0.208      201.582       28.764        0.020      337.242        9.081      864.501
04/09/2015  10:44:00     -115.652      -10.795      -21.406       61.618       35.789       24.659     3796.716     1280.865      608.063        0.982        0.284      116.155       35.990        0.096      337.341        9.248      864.494
04/09/2015  10:45:00     -112.615       -4.074      -18.049       41.218       61.329       24.073     1698.909     3761.222      579.496        0.953        0.302      112.689       27.214        0.058      337.479        9.481      864.478
04/09/2015  10:46:00      -88.022       59.765      -18.284       47.796       34.465       23.674     2284.475     1187.850      560.447        0.784        0.202      106.394       27.738        0.068      337.452        9.436      864.479
04/09/2015  10:47:00      -10.180       96.033       12.465       20.622       49.384       29.432      425.281     2438.829      866.242        0.661        0.187       96.571       14.272        0.022      337.993       10.344      864.470
04/09/2015  10:48:00      -16.286      186.763        1.714       28.843       47.273       25.309      831.919     2234.713      640.521        1.943        0.185      187.472       21.458        0.013      337.494        9.506      864.463
04/09/2015  10:49:00      -46.784      171.630        0.560       37.957       52.888       29.838     1440.770     2797.128      890.312        1.839        0.256      177.892       22.964        0.017      337.746        9.927      864.453
04/09/2015  10:50:00      -31.935      190.559        0.942       24.682       38.273       25.864      609.212     1464.845      668.962        2.004        0.137      193.216       15.792        0.007      337.543        9.587      864.449
04/09/2015  10:51:00      -15.129      171.763        0.050       22.324       35.798       23.104      498.373     1281.521      533.817        1.602        0.116      172.428       11.157        0.004      337.604        9.691      864.445
04/09/2015  10:52:00      -71.772      101.980       -4.855       56.774       54.619       27.071     3223.255     2983.279      732.813        1.126        0.347      124.705       34.882        0.078      337.981       10.322      864.444
04/09/2015  10:53:00      -76.863       28.909      -20.949       49.125       28.196       25.965     2413.270      795.022      674.179        0.553        0.194       82.120       29.093        0.126      337.708        9.865      864.435
04/09/2015  10:54:00     -108.263      -96.750       -7.731       53.655       57.940       29.762     2878.838     3357.078      885.769        1.413        0.356      145.194       32.683        0.051      337.727        9.896      864.422
04/09/2015  10:55:00        4.121      -64.563        7.506       28.888       38.625       21.182      834.508     1491.870      448.662        0.351        0.139       64.694       15.996        0.061      337.714        9.875      864.417
04/09/2015  10:56:00       29.719     -115.594       -7.875       48.051       31.467       24.715     2308.870      990.143      610.843        0.911        0.195      119.353       25.482        0.046      337.389        9.331      864.415
04/09/2015  10:57:00      183.240      -34.802       20.278       49.981       59.485       25.265     2498.053     3538.524      638.341        2.094        0.334      186.515       18.512        0.010      337.478        9.478      864.389
04/09/2015  10:58:00      156.732      -21.538        5.315       19.790       31.293       20.487      391.627      979.259      419.719        1.342        0.090      158.205       12.140        0.006      337.662        9.787      864.375
04/09/2015  10:59:00       74.074       71.157       30.651       57.226       40.123       30.671     3274.822     1609.877      940.688        0.866        0.291      102.714       23.623        0.053      338.326       10.902      864.357
04/09/2015  11:00:00      -27.214      132.408        6.239       24.740       54.562       37.404      612.069     2976.986     1399.049        1.165        0.249      135.176       23.276        0.030      337.995       10.347      864.355
04/09/2015  11:01:00      -63.393      101.646       -1.831       49.318       71.878       27.112     2432.275     5166.377      735.069        1.134        0.417      119.794       28.235        0.056      338.048       10.434      864.341
04/09/2015  11:02:00      -66.869      174.763      -16.100       35.576       55.895       32.562     1265.617     3124.222     1060.291        2.036        0.273      187.119       29.598        0.025      337.835       10.076      864.346
04/09/2015  11:03:00      -90.355      148.289       -3.226       74.100       56.070       40.315     5490.790     3143.885     1625.312        2.021        0.513      173.648       49.514        0.081      338.213       10.711      864.325
04/09/2015  11:04:00     -141.959       81.130      -31.786       63.773       59.014       20.576     4066.996     3482.647      423.359        1.786        0.399      163.507       31.390        0.037      337.915       10.211      864.315
04/09/2015  11:05:00      -94.477      117.588      -17.142       55.502       40.409       32.609     3080.473     1632.913     1063.325        1.441        0.289      150.840       32.876        0.048      338.083       10.492      864.325
04/09/2015  11:06:00       14.154       73.481       -6.976       38.611       32.897       22.095     1490.826     1082.186      488.207        0.435        0.153       74.831       14.965        0.040      337.814       10.043      864.315
04/09/2015  11:07:00      -95.029       12.078      -12.866       46.518       74.978       23.469     2163.913     5621.751      550.776        0.884        0.417       95.794       29.270        0.093      338.145       10.597      864.312
04/09/2015  11:08:00     -102.780      -21.803      -16.231       47.107       49.344       25.477     2219.075     2434.876      649.078        0.830        0.265      105.067       30.361        0.084      338.125       10.564      864.295
04/09/2015  11:09:00      -72.470       50.384      -20.076       27.966       30.830       20.763      782.099      950.479      431.107        0.518        0.108       88.264       19.165        0.047      338.149       10.605      864.293
04/09/2015  11:10:00      -54.442       22.572      -13.076       34.024       34.639       18.067     1157.639     1199.829      326.425        0.316        0.134       58.936       22.317        0.143      338.106       10.531      864.282
04/09/2015  11:11:00     -105.942       85.107      -17.208       79.107       89.729       35.812     6257.902     8051.244     1282.530        1.717        0.780      135.893       50.104        0.136      338.348       10.938      864.281
04/09/2015  11:12:00      -60.702       22.035       -6.168       65.022       75.982       37.001     4227.852     5773.260     1369.106        0.779        0.569       64.577       41.236        0.408      338.578       11.326      864.275
04/09/2015  11:13:00      -59.235      149.478       -8.546       27.608       43.565       25.998      762.183     1897.869      675.889        1.463        0.167      160.787       18.092        0.013      337.917       10.215      864.271
04/09/2015  11:14:00      -47.377       98.663       -9.919       34.079       52.141       19.511     1161.403     2718.666      380.675        0.817        0.213      109.448       16.104        0.022      337.921       10.222      864.263
04/09/2015  11:15:00       -0.373       43.486        7.944       48.704       32.465       28.705     2372.117     1053.996      823.976        0.310        0.213       43.488       22.303        0.263      338.396       11.020      864.237
04/09/2015  11:16:00     -174.874       43.162      -36.822       52.492       40.714       21.691     2755.453     1657.666      470.508        1.934        0.244      180.122       28.291        0.025      338.223       10.727      864.230
04/09/2015  11:17:00     -154.287       82.843      -34.075       46.758       27.510       19.835     2186.297      756.791      393.421        1.758        0.167      175.121       22.919        0.017      338.183       10.661      864.214
04/09/2015  11:18:00      -63.153       -6.151        1.286       36.186       33.467       28.505     1309.449     1120.072      812.554        0.363        0.162       63.452       27.808        0.192      338.326       10.902      864.218
04/09/2015  11:19:00      -72.087      -41.954        0.502       47.872       78.379       21.981     2291.760     6143.195      483.175        0.794        0.446       83.407       19.537        0.055      338.241       10.759      864.187
04/09/2015  11:20:00     -103.640     -129.612        2.454       36.647       50.584       36.823     1343.037     2558.719     1355.903        1.640        0.263      165.954       25.705        0.024      338.482       11.164      864.170
04/09/2015  11:21:00      -28.885     -110.615       -0.001       37.620       46.027       27.186     1415.291     2118.481      739.103        0.867        0.214      114.325       14.787        0.017      338.351       10.944      864.141
04/09/2015  11:22:00      -20.152      -51.429       15.979       31.640       27.721       19.388     1001.111      768.475      375.888        0.273        0.107       55.236       11.109        0.040      338.687       11.509      864.135
04/09/2015  11:23:00     -121.882      -27.730      -24.546       81.838       39.604       33.128     6697.523     1568.439     1097.490        1.279        0.468      124.997       41.987        0.113      338.615       11.386      864.133
04/09/2015  11:24:00      -78.231      -19.926      -12.169       53.901       27.899       21.643     2905.344      778.350      468.434        0.541        0.208       80.729       28.903        0.128      338.378       10.990      864.127
04/09/2015  11:25:00       -6.381        3.074       10.902       29.787       33.598       35.929      887.257     1128.806     1290.928        0.174        0.165        7.083       20.398        8.293      338.586       11.338      864.099
04/09/2015  11:26:00        3.597       14.399       23.622       23.630       29.435       26.790      558.369      866.427      717.695        0.146        0.107       14.841       11.330        0.583      339.018       12.066      864.072
04/09/2015  11:27:00       27.116      -41.733       17.035       40.826       57.003       28.623     1666.768     3249.325      819.295        0.425        0.287       49.769       28.369        0.325      338.931       11.919      864.063
04/09/2015  11:28:00       22.325      -11.612        2.244       27.442       30.832       20.868      753.066      950.630      435.490        0.139        0.107       25.164       21.587        0.736      338.697       11.525      864.061
04/09/2015  11:29:00       40.179       11.257       12.346       40.787       63.193       28.767     1663.542     3993.400      827.538        0.419        0.324       41.726       28.740        0.474      338.573       11.317      864.048
04/09/2015  11:30:00      -96.231       87.499      -14.831       78.335       59.853       29.741     6136.419     3582.347      884.551        1.387        0.530      130.063       37.514        0.083      339.080       12.169      864.032
04/09/2015  11:31:00      -44.043      113.502       19.931       70.558       44.171       36.477     4978.364     1951.080     1330.608        1.174        0.413      121.748       42.631        0.123      339.086       12.180      864.026
04/09/2015  11:32:00       11.855      172.613        5.532       33.793       80.139       26.622     1141.941     6422.288      708.729        1.912        0.414      173.020       13.418        0.006      339.014       12.057      864.020
04/09/2015  11:33:00       -8.823      206.754        0.095       35.310       41.719       28.320     1246.789     1740.444      802.013        2.331        0.189      206.942       17.880        0.007      338.672       11.482      864.001
04/09/2015  11:34:00      -16.007       83.565       -6.759       54.304       48.645       24.298     2948.876     2366.354      590.404        0.659        0.295       85.084       24.184        0.081      338.745       11.606      863.987
04/09/2015  11:35:00     -248.105       63.088      -43.065      104.164       51.242       28.198    10850.050     2625.774      795.144        4.083        0.714      256.000       47.389        0.034      338.817       11.725      863.969
04/09/2015  11:36:00     -223.134      -25.401      -42.316       80.164       70.020       29.135     6426.243     4902.849      848.850        3.220        0.609      224.576       43.790        0.038      338.593       11.346      863.959
04/09/2015  11:37:00      -57.030       32.257       -6.908       38.216      130.646       36.252     1460.430    17068.436     1314.184        1.209        0.992       65.520       38.671        0.348      338.690       11.514      863.953
04/09/2015  11:38:00      -19.277      140.188       -4.134       52.935       52.456       30.662     2802.163     2751.670      940.174        1.327        0.325      141.507       26.704        0.036      338.694       11.519      863.946
04/09/2015  11:39:00      -32.916       30.722        6.247       30.204       29.250       23.243      912.298      855.575      540.243        0.219        0.115       45.026       17.202        0.146      339.447       12.788      863.924
04/09/2015  11:40:00      -58.248      -27.603       -0.733       29.426       33.824       22.415      865.881     1144.075      502.448        0.333        0.126       64.457       19.784        0.094      338.785       11.673      863.885
04/09/2015  11:41:00      -21.834      -49.430        4.060       25.840       21.028       28.128      667.700      442.176      791.168        0.242        0.095       54.037       18.951        0.123      338.954       11.956      863.867
04/09/2015  11:42:00      -32.387      -66.342        5.637       32.184       27.029       30.752     1035.783      730.582      945.713        0.410        0.136       73.826       21.083        0.082      338.701       11.531      863.843
04/09/2015  11:43:00      100.466      -44.405        8.352       55.567       34.523       25.813     3087.693     1191.856      666.289        0.854        0.247      109.842       14.068        0.016      338.845       11.773      863.817
04/09/2015  11:44:00      178.938       -6.246       11.003       78.830       69.033       26.866     6214.123     4765.515      721.788        2.194        0.585      179.047       26.328        0.022      338.972       11.985      863.797
04/09/2015  11:45:00      157.087       59.075        9.018       56.860       41.217       24.811     3233.046     1698.852      615.598        1.690        0.277      167.828       19.152        0.013      339.002       12.037      863.784
04/09/2015  11:46:00      183.860      144.495        1.947       60.218       51.300       33.451     3626.232     2631.667     1118.968        3.103        0.369      233.844       23.288        0.010      338.930       11.914      863.759
04/09/2015  11:47:00       71.242      160.007        9.437       77.554       45.479       31.032     6014.633     2068.369      963.001        1.990        0.452      175.151       18.491        0.011      338.989       12.015      863.761
04/09/2015  11:48:00       17.808       85.692       10.675       36.598       47.603       21.163     1339.407     2266.008      447.856        0.591        0.203       87.522       12.879        0.022      339.439       12.773      863.751
04/09/2015  11:49:00      -51.455      131.450       -1.940       43.130       51.493       26.592     1860.173     2651.506      707.123        1.257        0.261      141.162       20.068        0.020      338.979       11.999      863.738
04/09/2015  11:50:00       41.570      121.165       -4.076       34.871       44.014       22.268     1215.968     1937.205      495.873        1.004        0.182      128.098       10.166        0.006      338.729       11.580      863.717
04/09/2015  11:51:00      -32.937      156.914       -0.344       68.832       79.768       30.905     4737.841     6362.985      955.147        1.888        0.603      160.334       34.574        0.047      339.088       12.182      863.692
04/09/2015  11:52:00     -200.578      105.140      -32.250       79.764       54.891       26.365     6362.345     3012.995      695.100        3.120        0.504      226.464       38.150        0.028      339.011       12.052      863.673
04/09/2015  11:53:00     -132.496       59.034      -20.803       58.275       40.248       28.705     3395.940     1619.879      823.954        1.366        0.292      145.053       31.736        0.048      339.247       12.449      863.666
04/09/2015  11:54:00     -128.850       34.143      -20.104       55.247       36.124       19.127     3052.179     1304.947      365.852        1.145        0.236      133.297       27.023        0.041      339.115       12.228      863.651
04/09/2015  11:55:00     -124.944     -107.733       -2.834       59.545       35.532       30.907     3545.612     1262.494      955.266        1.649        0.288      164.977       33.268        0.041      339.186       12.347      863.629
04/09/2015  11:56:00     -105.602     -148.881      -10.706       74.509       61.462       38.369     5551.622     3777.521     1472.204        2.211        0.540      182.531       26.471        0.021      338.920       11.898      863.615
04/09/2015  11:57:00     -169.156      -19.835      -19.685       64.225       63.314       21.950     4124.813     4008.697      481.802        1.900        0.431      170.315       32.624        0.037      338.842       11.768      863.637
04/09/2015  11:58:00     -189.420       39.861      -25.706       81.510       45.497       21.972     6643.851     2069.993      482.778        2.366        0.460      193.569       35.206        0.033      338.949       11.947      863.631
04/09/2015  11:59:00     -212.046       -6.100      -25.816       71.135       35.174       24.311     5060.257     1237.194      591.033        2.628        0.344      212.134       33.013        0.024      339.273       12.492      863.614
04/09/2015  12:00:00     -217.763       40.874      -40.245      104.462       52.771       32.237    10912.339     2784.769     1039.255        3.272        0.737      221.566       36.768        0.028      339.099       12.199      863.607
04/09/2015  12:01:00     -267.015        5.669      -39.377      103.144       79.290       27.614    10638.602     6286.850      762.525        4.528        0.884      267.075       48.754        0.033      339.015       12.056      863.589
04/09/2015  12:02:00     -232.198     -180.599       -1.612       55.630       76.400       33.584     3094.734     5836.974     1127.908        4.830        0.503      294.163       37.776        0.016      339.425       12.746      863.567
04/09/2015  12:03:00     -263.986      -51.215      -28.362       72.370       80.529       33.153     5237.435     6484.873     1099.123        4.297        0.641      268.908       47.045        0.031      339.212       12.387      863.549
04/09/2015  12:04:00     -234.395      -94.638      -12.829       71.626       91.258       32.127     5130.265     8328.084     1032.170        3.927        0.725      252.779       46.910        0.034      339.514       12.897      863.543
04/09/2015  12:05:00     -296.273       54.756      -40.547       79.595       72.075       22.482     6335.305     5194.742      505.436        5.223        0.602      301.290       37.822        0.016      339.148       12.281      863.560
04/09/2015  12:06:00     -151.878       24.180      -17.889       68.880       55.444       23.731     4744.444     3074.069      563.161        1.617        0.419      153.791       35.964        0.055      339.198       12.369      863.558
04/09/2015  12:07:00      -53.976        5.209        0.027       33.371       40.173       27.644     1113.626     1613.869      764.178        0.322        0.175       54.227       23.171        0.183      339.613       13.068      863.537
04/09/2015  12:08:00     -101.677      -44.211       -3.721       48.899       60.576       23.894     2391.093     3669.496      570.942        0.947        0.332      110.873       33.086        0.089      339.114       12.225      863.505
04/09/2015  12:09:00      -44.570      -21.531       12.085       46.071       38.050       25.482     2122.507     1447.804      649.345        0.341        0.211       49.499       31.557        0.406      339.524       12.916      863.474
04/09/2015  12:10:00      -97.002       16.027       -9.765       49.000       33.796       17.435     2401.042     1142.168      303.964        0.680        0.192       98.317       26.229        0.071      339.033       12.088      863.452
04/09/2015  12:11:00      -89.380      -10.303       -8.451       47.542       26.716       19.432     2260.230      713.769      377.587        0.576        0.168       89.972       23.803        0.070      339.443       12.780      863.453
04/09/2015  12:12:00     -237.060      -19.781      -26.396       87.428       69.480       29.370     7643.578     4827.428      862.603        3.531        0.667      237.884       42.250        0.032      339.727       13.255      863.433
04/09/2015  12:13:00     -113.432       42.442       -6.586       72.279       52.892       27.351     5224.308     2797.542      748.066        1.174        0.438      121.113       34.655        0.082      340.195       14.049      863.454
04/09/2015  12:14:00     -108.509       80.462      -14.796       56.371       49.334       24.015     3177.740     2433.829      576.736        1.233        0.309      135.087       27.040        0.040      339.532       12.930      863.444
04/09/2015  12:15:00     -122.722      154.008      -25.716       32.185       48.871       28.811     1035.848     2388.394      830.051        2.185        0.213      196.925       19.979        0.010      339.063       12.139      863.441
04/09/2015  12:16:00     -101.214       83.576       -9.872       55.795       64.659       30.648     3113.069     4180.779      939.319        1.278        0.412      131.260       33.730        0.066      339.826       13.424      863.434
04/09/2015  12:17:00      -95.592      252.963       -9.260       65.492       75.659       42.192     4289.240     5724.214     1780.196        4.250        0.590      270.422       41.102        0.023      339.456       12.799      863.458
04/09/2015  12:18:00     -163.396      -18.523      -22.283       61.404       70.034       22.640     3770.419     4904.711      512.574        1.836        0.459      164.443       29.438        0.032      339.001       12.035      863.452
04/09/2015  12:19:00     -137.535     -138.552      -26.746       62.155       81.513       31.677     3863.211     6644.359     1003.454        2.517        0.576      195.225       32.778        0.028      338.892       11.851      863.413
04/09/2015  12:20:00      -83.512       60.300      -14.505       44.706       46.108       27.517     1998.604     2125.990      757.190        0.785        0.244      103.006       25.908        0.063      339.235       12.430      863.409
04/09/2015  12:21:00     -107.513      111.446      -17.149       67.026       72.654       34.505     4492.431     5278.598     1190.607        1.762        0.548      154.852       45.230        0.085      339.854       13.471      863.417
04/09/2015  12:22:00      -60.246      172.229        0.793       54.798       65.851       40.147     3002.774     4336.298     1611.808        2.112        0.448      182.462       26.323        0.021      339.696       13.205      863.404
04/09/2015  12:23:00      -27.696      195.561       -2.506       37.720       52.014       34.251     1422.784     2705.409     1173.108        2.216        0.265      197.512       12.479        0.004      339.414       12.729      863.396
04/09/2015  12:24:00      -78.818      275.444       -0.218       44.000       61.047       37.283     1936.038     3726.697     1390.054        4.457        0.353      286.499       35.719        0.016      339.584       13.015      863.380
04/09/2015  12:25:00     -109.672      134.673      -13.844       68.029       82.960       27.219     4627.937     6882.421      740.861        2.130        0.613      173.680       34.704        0.040      339.559       12.973      863.369
04/09/2015  12:26:00     -181.080       48.350      -18.632       74.403       59.306       28.448     5535.817     3517.181      809.313        2.267        0.493      187.424       38.869        0.043      339.479       12.840      863.353
04/09/2015  12:27:00     -286.426       33.125      -37.292       69.638       60.250       25.284     4849.505     3630.026      639.304        4.682        0.456      288.335       35.041        0.015      339.510       12.889      863.348
04/09/2015  12:28:00     -165.105       24.849      -22.372      103.235       28.158       24.587    10657.495      792.869      604.507        2.021        0.603      166.965       45.637        0.075      339.201       12.371      863.349
04/09/2015  12:29:00      -68.726       28.890       -8.896       86.144       39.888       20.703     7420.758     1591.073      428.617        0.754        0.472       74.552       33.570        0.203      339.549       12.957      863.307
04/09/2015  12:30:00     -131.937      138.936      -13.284       63.865       63.178       34.109     4078.751     3991.428     1163.411        2.306        0.462      191.600       33.183        0.030      339.217       12.397      863.287
04/09/2015  12:31:00      -57.982      -82.497        7.552       44.180       41.309       30.372     1951.885     1706.445      922.443        0.740        0.229      100.835       22.239        0.049      339.611       13.064      863.278
04/09/2015  12:32:00     -211.314       16.907      -26.436       94.508       51.111       28.898     8931.844     2612.315      835.122        2.901        0.619      211.989       43.881        0.043      339.719       13.242      863.284
04/09/2015  12:33:00     -310.946       41.190      -42.393       85.895       46.061       25.894     7378.022     2121.584      670.493        5.517        0.509      313.663       38.290        0.015      339.258       12.464      863.271
04/09/2015  12:34:00     -174.396      -72.676      -16.613      115.728       79.384       37.153    13392.934     6301.758     1380.319        2.852        1.054      188.933       49.789        0.069      339.433       12.761      863.257
04/09/2015  12:35:00     -341.526       79.881      -45.180       54.992       37.827       18.793     3024.094     1430.919      353.176        6.493        0.240      350.744       25.485        0.005      339.081       12.166      863.244
04/09/2015  12:36:00     -170.298      131.370      -29.133       84.592       49.448       31.421     7155.873     2445.066      987.266        2.885        0.529      215.080       39.069        0.033      339.313       12.558      863.253
04/09/2015  12:37:00      -62.577      131.366       -0.015       48.976       53.079       32.441     2398.662     2817.393     1052.431        1.372        0.313      145.510       32.053        0.049      339.464       12.816      863.234
04/09/2015  12:38:00     -119.595      109.404      -14.195       60.747       54.213       33.133     3690.143     2938.998     1097.821        1.710        0.386      162.087       35.076        0.047      339.589       13.025      863.213
04/09/2015  12:39:00      -85.402       87.367      -13.558       39.690       72.788       25.512     1575.268     5298.143      650.841        1.132        0.376      122.174       26.443        0.047      339.652       13.133      863.208
04/09/2015  12:40:00      -81.859     -114.059       19.966       37.613       29.116       33.827     1414.709      847.741     1144.253        1.176        0.170      140.394       19.591        0.019      339.680       13.180      863.182
04/09/2015  12:41:00      -23.914      -43.540       15.717       40.840       32.748       22.336     1667.935     1072.460      498.895        0.298        0.162       49.675       19.222        0.150      339.949       13.635      863.162
04/09/2015  12:42:00     -134.672       -2.477       -3.806       91.527       62.946       31.012     8377.245     3962.220      961.731        1.573        0.665      134.694       49.845        0.137      340.328       14.272      863.148
04/09/2015  12:43:00     -310.896       86.156      -36.132       34.964       31.950       14.180     1222.498     1020.786      201.082        5.391        0.122      322.613       16.281        0.003      339.140       12.265      863.122
04/09/2015  12:44:00     -194.431       56.969      -25.871       58.710       47.894       20.091     3446.825     2293.854      403.648        2.393        0.307      202.605       33.303        0.027      339.238       12.432      863.124
04/09/2015  12:45:00      -45.763        0.984       -4.685       58.646       28.114       19.394     3439.334      790.391      376.118        0.336        0.230       45.774       24.369        0.283      339.650       13.129      863.116
04/09/2015  12:46:00       29.969      -31.684       20.881       44.791       28.151       28.622     2006.233      792.470      819.220        0.298        0.181       43.612       27.373        0.394      339.922       13.588      863.081
04/09/2015  12:47:00      -49.792      -24.708        0.598       31.408       43.868       22.377      986.478     1924.359      500.741        0.325        0.171       55.585       22.639        0.166      339.876       13.512      863.059
04/09/2015  12:48:00     -157.186      -97.873       -2.995       67.434       54.795       33.049     4547.290     3002.531     1092.231        2.147        0.432      185.166       37.498        0.041      339.601       13.044      863.029
04/09/2015  12:49:00      -98.240       35.352      -17.451       60.301       34.525       16.234     3636.192     1191.977      263.554        0.815        0.255      104.407       23.539        0.051      339.215       12.397      863.026
04/09/2015  12:50:00      -70.568       33.716      -14.949       46.763       42.870       18.359     2186.755     1837.830      337.052        0.535        0.218       78.209       19.433        0.062      339.365       12.649      863.016
04/09/2015  12:51:00        9.042      -55.347      -10.925       36.243       32.433       18.641     1313.567     1051.913      347.486        0.299        0.136       56.081       15.758        0.079      339.413       12.729      863.006
04/09/2015  12:52:00       45.949      -12.382       16.481       56.541       86.810       33.347     3196.873     7535.936     1111.989        0.719        0.592       47.588       32.644        0.471      340.120       13.923      862.977
04/09/2015  12:53:00       64.029      -50.114       20.722       31.298       47.824       21.881      979.596     2287.137      478.761        0.539        0.187       81.309        5.420        0.004      340.023       13.759      862.962
04/09/2015  12:54:00      -12.084     -124.113       10.590       56.441       38.757       32.107     3185.580     1502.091     1030.885        1.069        0.286      124.700       25.157        0.041      339.728       13.261      862.935
04/09/2015  12:55:00      -36.541      -56.082       -4.234       23.508       31.029       17.268      552.637      962.769      298.178        0.316        0.091       66.936        7.891        0.014      339.505       12.885      862.927
04/09/2015  12:56:00      -72.066      -29.781       -1.946       46.532       38.567       26.467     2165.191     1487.449      700.505        0.522        0.218       77.977       29.429        0.142      339.992       13.706      862.926
04/09/2015  12:57:00     -100.640      102.053      -15.654       49.267       63.090       30.763     2427.231     3980.330      946.370        1.407        0.368      143.330       28.950        0.041      339.854       13.474      862.914
04/09/2015  12:58:00     -107.068       77.098      -17.481       64.350       73.267       24.274     4140.911     5368.061      589.242        1.390        0.505      131.938       33.621        0.065      339.750       13.298      862.907
04/09/2015  12:59:00     -151.139       85.301      -21.502       61.422       47.110       30.238     3772.701     2219.356      914.349        1.874        0.345      173.549       35.796        0.043      339.834       13.438      862.909
04/09/2015  13:00:00     -190.790       74.547      -29.775       96.042       46.465       27.256     9224.144     2158.970      742.909        2.748        0.606      204.836       45.593        0.050      339.656       13.138      862.904
04/09/2015  13:01:00     -126.387        2.287      -15.555       90.197       25.941       28.614     8135.492      672.911      818.787        1.292        0.481      126.408       42.993        0.116      339.858       13.480      862.894
04/09/2015  13:02:00     -148.674       57.152      -15.365       84.257       49.005       28.961     7099.263     2401.534      838.727        1.797        0.517      159.281       42.925        0.073      340.014       13.742      862.885
04/09/2015  13:03:00      -93.406       56.258       -3.341       83.780       59.646       40.061     7019.098     3557.621     1604.868        1.204        0.609      109.040       55.280        0.257      340.304       14.231      862.883
04/09/2015  13:04:00       39.669       34.821       12.927       76.302       83.400       32.269     5821.929     6955.523     1041.256        0.838        0.691       52.784       35.655        0.456      340.088       13.868      862.872
04/09/2015  13:05:00       80.230      139.296        2.915       47.395       55.265       29.244     2246.319     3054.271      855.234        1.600        0.308      160.749       17.383        0.012      339.718       13.241      862.858
04/09/2015  13:06:00      157.231      -23.557        0.917       49.299      136.189       38.625     2430.373    18547.419     1491.893        2.387        1.123      158.986       40.044        0.063      339.460       12.806      862.846
04/09/2015  13:07:00      258.048     -192.388       35.862       66.936      156.625       37.636     4480.440    24531.511     1416.452        6.765        1.521      321.872       12.703        0.002      339.783       13.349      862.773
04/09/2015  13:08:00      280.314     -224.878       45.210       82.924       75.855       46.048     6876.362     5754.046     2120.452        7.297        0.738      359.368       28.606        0.006      339.573       12.995      862.752
04/09/2015  13:09:00      176.197      -36.545       31.406       55.449      106.127       32.401     3074.628    11262.999     1049.828        2.437        0.769      179.947       30.131        0.028      340.166       13.998      862.782
04/09/2015  13:10:00      124.922      -29.973       20.401       43.693       90.458       24.667     1909.097     8182.619      608.453        1.381        0.535      128.467        6.246        0.002      340.128       13.935      862.786
04/09/2015  13:11:00       24.634      -13.827       12.701       36.207       50.175       22.312     1310.932     2517.525      497.829        0.264        0.216       28.249       12.881        0.208      340.207       14.069      862.798
04/09/2015  13:12:00      -15.491       96.414       11.487       47.903       73.264       40.115     2294.701     5367.611     1609.203        0.947        0.464       97.650       28.363        0.084      340.669       14.850      862.789
04/09/2015  13:13:00     -115.661      189.357       -6.025       89.253      125.014       43.506     7966.068    15628.414     1892.747        3.737        1.274      221.887       48.715        0.048      340.707       14.912      862.778
04/09/2015  13:14:00     -138.921      177.159      -17.635       89.724       66.011       43.627     8050.483     4357.459     1903.329        3.265        0.716      225.132       47.856        0.045      340.665       14.840      862.774
04/09/2015  13:15:00     -156.619      167.780      -21.191       75.613      107.242       39.469     5717.260    11500.881     1557.839        3.595        0.939      229.520       47.352        0.043      340.265       14.164      862.784
04/09/2015  13:16:00     -156.240      170.997      -26.712       66.325       59.640       33.953     4398.945     3556.889     1152.784        3.173        0.455      231.627       36.128        0.024      339.982       13.687      862.799
04/09/2015  13:17:00     -128.078       34.187      -25.053       48.452       51.778       22.298     2347.626     2680.953      497.187        1.186        0.276      132.562       27.420        0.043      340.129       13.936      862.793
04/09/2015  13:18:00     -138.726      114.992      -22.604       90.163       93.577       36.130     8129.356     8756.676     1305.383        2.558        0.910      180.189       52.112        0.084      340.133       13.941      862.761
04/09/2015  13:19:00     -177.407      138.137      -27.458       71.722       58.773       36.582     5144.008     3454.320     1338.216        3.062        0.497      224.844       40.061        0.032      340.132       13.938      862.759
04/09/2015  13:20:00     -156.061       54.296      -28.848       52.335       37.077       17.562     2738.909     1374.686      308.421        1.628        0.221      165.236       25.029        0.023      339.818       13.413      862.762
04/09/2015  13:21:00      -40.121       33.029      -26.675       49.647       28.195       28.975     2464.842      794.931      839.533        0.375        0.205       51.967       18.587        0.128      339.672       13.166      862.759
04/09/2015  13:22:00      -27.140      -80.388       18.003       75.747       54.693       29.457     5737.591     2991.323      867.712        0.856        0.480       84.846       23.650        0.078      339.836       13.442      862.740
04/09/2015  13:23:00        4.957      -38.038       -4.024       26.439       42.313       20.333      699.015     1790.392      413.424        0.219        0.145       38.360       14.909        0.151      339.871       13.502      862.726
04/09/2015  13:24:00       25.822      -10.323        0.461       28.023       31.241       21.396      785.294      975.993      457.795        0.150        0.111       27.809       17.228        0.384      339.787       13.360      862.710
04/09/2015  13:25:00       65.773     -123.271       12.856       43.014       45.263       26.509     1850.178     2048.695      702.726        1.214        0.230      139.721       21.796        0.024      340.055       13.811      862.689
04/09/2015  13:26:00       63.218     -142.097        6.889       50.884       35.923       26.813     2589.132     1290.453      718.955        1.442        0.230      155.525       15.141        0.009      339.864       13.489      862.668
04/09/2015  13:27:00      111.708     -132.490       13.596       36.597       44.385       28.202     1339.320     1970.066      795.339        1.716        0.205      173.298       18.339        0.011      339.949       13.633      862.648
04/09/2015  13:28:00      146.718      -62.277       10.438       27.632       31.671       24.099      763.551     1003.077      580.766        1.393        0.117      159.388        8.873        0.003      339.782       13.352      862.628
04/09/2015  13:29:00       36.276     -109.175       10.836       44.270       51.285       25.235     1959.854     2630.113      636.796        0.929        0.261      115.044       15.052        0.017      340.171       14.008      862.612
04/09/2015  13:30:00       54.103     -127.751        8.357       38.225       33.161       24.502     1461.180     1099.624      600.368        1.124        0.158      138.735       11.895        0.007      340.312       14.248      862.598
04/09/2015  13:31:00       54.967      -49.029       14.379       63.866       43.423       23.310     4078.872     1885.539      543.377        0.607        0.325       73.656       17.382        0.056      340.482       14.534      862.606
04/09/2015  13:32:00       22.125       83.720       27.747       45.078       52.046       23.617     2031.981     2708.754      557.773        0.678        0.265       86.595       21.151        0.060      340.701       14.903      862.597
04/09/2015  13:33:00       38.633      132.011        2.307       50.217       71.604       25.259     2521.743     5127.186      638.006        1.360        0.414      137.548       17.259        0.016      340.300       14.225      862.588
04/09/2015  13:34:00      -15.383       88.632       -3.475       18.876       56.038       29.845      356.299     3140.227      890.704        0.624        0.219       89.957       19.233        0.046      340.092       13.874      862.581
04/09/2015  13:35:00      -17.902       48.228       -0.475       51.909       50.192       26.184     2694.550     2519.279      685.599        0.427        0.295       51.444       22.314        0.188      340.031       13.773      862.555
04/09/2015  13:36:00       45.188       95.310       24.503       66.553       42.960       24.766     4429.285     1845.532      613.346        0.931        0.344      105.479       25.644        0.059      340.400       14.395      862.539
04/09/2015  13:37:00       20.948       35.023       -1.482       43.095       30.678       22.416     1857.150      941.140      502.471        0.248        0.165       40.810       15.829        0.150      340.056       13.813      862.519
04/09/2015  16:17:00        6.468        0.361        8.672        4.749        2.659        4.096       22.557        7.072       16.774        0.008        0.002        6.478        1.448        0.050      345.603       23.250      858.666
04/09/2015  16:18:00        9.313        0.234        8.259        4.214        3.011        4.634       17.758        9.066       21.476        0.010        0.002        9.316        2.315        0.062      345.640       23.313      858.650
04/09/2015  16:19:00        8.999       -0.116        8.680        4.213        2.879        4.387       17.751        8.290       19.250        0.010        0.002        9.000        1.630        0.033      345.659       23.345      858.647
04/09/2015  16:20:00        6.507       -0.366        5.372        3.982        3.009        3.367       15.857        9.053       11.339        0.005        0.002        6.517        2.098        0.104      345.615       23.270      858.654
04/09/2015  16:20:00        2.000        1.000        3.000          NaN          NaN          NaN          NaN          NaN          NaN        0.001          NaN        2.236        0.000        0.000      345.580       23.200      858.640
04/09/2015  16:39:00        8.852        1.531        8.177        3.578        3.199        5.042       12.804       10.231       25.421        0.010        0.002        8.983        1.336        0.022      345.737       23.483      838.271
04/09/2015  16:39:00        6.000        2.000        7.000          NaN          NaN          NaN          NaN          NaN          NaN        0.004          NaN        6.325        0.000        0.000      345.740       23.500      858.540
